createdAt,value
2019-04-11T00:01:44.716Z,90.50
2019-04-11T00:04:08.219Z,90.60
2019-04-11T00:06:37.719Z,90.60
2019-04-11T00:09:10.216Z,91.00
2019-04-11T00:11:39.200Z,90.50
2019-04-11T00:14:08.110Z,90.70
2019-04-11T00:16:37.352Z,90.50
2019-04-11T00:19:07.313Z,90.60
2019-04-11T00:21:37.836Z,90.70
2019-04-11T00:24:07.137Z,90.50
2019-04-11T00:26:36.180Z,90.50
2019-04-11T00:29:06.207Z,90.90
2019-04-11T00:31:35.187Z,90.80
2019-04-11T00:34:04.718Z,90.80
2019-04-11T00:36:34.598Z,90.80
2019-04-11T00:39:05.787Z,90.80
2019-04-11T00:41:34.862Z,90.80
2019-04-11T00:44:06.343Z,90.80
2019-04-11T00:46:34.720Z,91.00
2019-04-11T00:49:03.457Z,91.10
2019-04-11T00:51:33.861Z,91.30
2019-04-11T00:54:03.174Z,91.40
2019-04-11T00:56:32.479Z,91.30
2019-04-11T00:59:02.521Z,91.60
2019-04-11T01:01:31.776Z,92.00
2019-04-11T01:04:01.327Z,91.40
2019-04-11T01:06:30.173Z,91.60
2019-04-11T01:09:00.012Z,91.80
2019-04-11T01:11:29.988Z,91.60
2019-04-11T01:13:59.555Z,91.70
2019-04-11T01:16:34.849Z,91.70
2019-04-11T01:19:04.640Z,92.00
2019-04-11T01:21:34.819Z,92.10
2019-04-11T01:24:13.484Z,92.30
2019-04-11T01:26:43.474Z,92.90
2019-04-11T01:29:13.424Z,92.70
2019-04-11T01:31:44.215Z,93.00
2019-04-11T01:34:13.340Z,92.80
2019-04-11T01:36:42.950Z,92.80
2019-04-11T01:39:35.082Z,93.00
2019-04-11T01:42:04.465Z,93.40
2019-04-11T01:44:33.250Z,93.50
2019-04-11T01:47:02.665Z,93.40
2019-04-11T01:49:32.347Z,93.60
2019-04-11T01:52:02.228Z,93.60
2019-04-11T01:54:32.205Z,93.70
2019-04-11T01:57:01.522Z,94.40
2019-04-11T01:59:31.277Z,94.10
2019-04-11T02:02:22.247Z,94.00
2019-04-11T02:04:59.230Z,94.30
2019-04-11T02:07:28.878Z,94.20
2019-04-11T02:09:57.989Z,94.50
2019-04-11T02:12:27.102Z,94.60
2019-04-11T02:14:56.110Z,94.30
2019-04-11T02:17:26.389Z,94.50
2019-04-11T02:19:56.557Z,94.40
2019-04-11T02:22:32.751Z,94.30
2019-04-11T02:25:08.342Z,94.30
2019-04-11T02:27:38.062Z,94.60
2019-04-11T02:30:08.838Z,94.50
2019-04-11T02:32:40.218Z,94.70
2019-04-11T02:35:10.993Z,94.70
2019-04-11T02:37:42.036Z,94.60
2019-04-11T02:40:11.334Z,94.60
2019-04-11T02:42:41.160Z,94.80
2019-04-11T02:45:24.984Z,94.70
2019-04-11T02:47:43.953Z,94.80
2019-04-11T02:50:14.919Z,94.60
2019-04-11T02:52:44.445Z,94.80
2019-04-11T02:55:14.447Z,94.70
2019-04-11T02:57:46.003Z,94.80
2019-04-11T03:00:15.861Z,94.90
2019-04-11T03:02:45.255Z,95.00
2019-04-11T03:05:14.187Z,95.20
2019-04-11T03:07:43.575Z,95.00
2019-04-11T03:10:14.121Z,95.10
2019-04-11T03:12:43.736Z,95.30
2019-04-11T03:15:28.852Z,94.90
2019-04-11T03:17:47.882Z,95.10
2019-04-11T03:20:26.699Z,95.20
2019-04-11T03:22:54.105Z,95.10
2019-04-11T03:25:17.807Z,95.10
2019-04-11T03:27:47.519Z,95.20
2019-04-11T03:30:24.816Z,95.20
2019-04-11T03:33:47.022Z,95.20
2019-04-11T03:36:07.547Z,95.20
2019-04-11T03:38:15.622Z,95.10
2019-04-11T03:40:43.798Z,95.10
2019-04-11T03:43:08.833Z,95.20
2019-04-11T03:45:45.306Z,95.00
2019-04-11T03:48:11.052Z,94.80
2019-04-11T03:50:30.570Z,94.80
2019-04-11T03:52:59.476Z,94.80
2019-04-11T03:55:30.704Z,94.70
2019-04-11T03:58:01.315Z,95.10
2019-04-11T04:00:36.047Z,95.10
2019-04-11T04:03:03.709Z,95.20
2019-04-11T04:05:36.507Z,95.20
2019-04-11T04:08:05.986Z,95.20
2019-04-11T04:10:36.974Z,95.30
2019-04-11T04:13:11.375Z,95.20
2019-04-11T04:16:04.999Z,95.30
2019-04-11T04:18:34.113Z,95.60
2019-04-11T04:21:38.737Z,95.90
2019-04-11T04:24:29.992Z,95.90
2019-04-11T04:26:59.210Z,95.80
2019-04-11T04:29:29.418Z,95.90
2019-04-11T04:31:59.502Z,95.90
2019-04-11T04:34:28.872Z,96.00
2019-04-11T04:37:00.106Z,95.90
2019-04-11T04:39:31.254Z,95.70
2019-04-11T04:42:08.228Z,95.80
2019-04-11T04:44:31.825Z,95.80
2019-04-11T04:47:15.588Z,95.40
2019-04-11T04:49:32.350Z,95.50
2019-04-11T04:52:03.970Z,95.20
2019-04-11T04:54:33.455Z,95.40
2019-04-11T04:57:05.044Z,95.40
2019-04-11T04:59:37.483Z,95.50
2019-04-11T05:02:06.632Z,95.50
2019-04-11T05:04:36.324Z,95.50
2019-04-11T05:07:07.329Z,95.60
2019-04-11T05:09:38.076Z,95.60
2019-04-11T05:12:07.687Z,95.30
2019-04-11T05:14:37.244Z,95.50
2019-04-11T05:17:06.803Z,95.80
2019-04-11T05:19:36.185Z,95.70
2019-04-11T05:22:04.978Z,95.60
2019-04-11T05:24:34.749Z,96.00
2019-04-11T05:27:04.201Z,95.90
2019-04-11T05:29:33.536Z,95.90
2019-04-11T05:32:03.101Z,95.90
2019-04-11T05:34:32.958Z,95.70
2019-04-11T05:37:02.111Z,96.00
2019-04-11T05:39:31.695Z,96.00
2019-04-11T05:42:00.836Z,95.80
2019-04-11T05:44:30.580Z,95.90
2019-04-11T05:47:02.619Z,95.80
2019-04-11T05:49:43.254Z,95.60
2019-04-11T05:52:12.556Z,95.80
2019-04-11T05:54:47.555Z,95.50
2019-04-11T05:57:21.213Z,95.90
2019-04-11T05:59:49.980Z,95.50
2019-04-11T06:02:46.532Z,95.90
2019-04-11T06:05:40.850Z,95.40
2019-04-11T06:08:12.444Z,94.80
2019-04-11T06:11:03.906Z,94.70
2019-04-11T06:13:46.919Z,94.80
2019-04-11T06:16:16.812Z,94.40
2019-04-11T06:19:00.528Z,94.20
2019-04-11T06:21:36.917Z,94.10
2019-04-11T06:24:40.965Z,93.70
2019-04-11T06:27:34.155Z,93.80
2019-04-11T06:30:28.365Z,93.50
2019-04-11T06:33:13.743Z,93.50
2019-04-11T06:36:11.804Z,93.70
2019-04-11T06:39:09.615Z,93.30
2019-04-11T06:42:01.176Z,93.90
2019-04-11T06:44:42.022Z,93.60
2019-04-11T06:47:29.113Z,93.40
2019-04-11T06:50:23.007Z,93.50
2019-04-11T06:52:52.940Z,93.70
2019-04-11T06:55:47.199Z,93.30
2019-04-11T06:58:23.487Z,92.60
2019-04-11T07:01:05.872Z,92.70
2019-04-11T07:03:40.610Z,93.00
2019-04-11T07:06:17.488Z,92.60
2019-04-11T07:08:54.698Z,92.60
2019-04-11T07:11:28.337Z,91.90
2019-04-11T07:14:10.622Z,91.80
2019-04-11T07:17:04.289Z,91.50
2019-04-11T07:19:58.694Z,91.40
2019-04-11T07:22:46.631Z,91.70
2019-04-11T07:25:28.871Z,91.30
2019-04-11T07:28:08.395Z,85.50
2019-04-11T07:30:56.086Z,84.00
2019-04-11T07:33:45.183Z,85.70
2019-04-11T07:36:32.279Z,78.40
2019-04-11T07:39:09.826Z,78.20
2019-04-11T07:42:11.293Z,71.60
2019-04-11T07:44:40.851Z,70.00
2019-04-11T07:47:20.544Z,71.90
2019-04-11T07:49:47.578Z,69.40
2019-04-11T07:52:17.603Z,64.80
2019-04-11T07:54:47.758Z,65.30
2019-04-11T07:57:28.504Z,65.80
2019-04-11T08:00:35.927Z,62.30
2019-04-11T08:03:12.316Z,62.50
2019-04-11T08:05:59.085Z,62.70
2019-04-11T08:08:47.128Z,62.80
2019-04-11T08:11:38.666Z,60.00
2019-04-11T08:14:16.192Z,59.50
2019-04-11T08:17:07.392Z,60.10
2019-04-11T08:20:15.164Z,59.90
2019-04-11T08:22:49.620Z,58.60
2019-04-11T08:25:43.421Z,59.30
2019-04-11T08:28:14.093Z,59.40
2019-04-11T08:31:03.377Z,57.80
2019-04-11T08:33:34.991Z,57.10
2019-04-11T08:36:38.289Z,54.90
2019-04-11T08:39:18.577Z,55.20
2019-04-11T08:42:03.410Z,56.80
2019-04-11T08:44:38.071Z,54.50
2019-04-11T08:47:09.945Z,52.50
2019-04-11T08:49:41.916Z,51.40
2019-04-11T08:52:30.491Z,52.00
2019-04-11T08:55:04.809Z,51.30
2019-04-11T08:57:42.605Z,52.10
2019-04-11T09:00:46.275Z,50.90
2019-04-11T09:03:33.649Z,48.90
2019-04-11T09:06:10.493Z,50.50
2019-04-11T09:08:59.024Z,50.00
2019-04-11T09:11:36.667Z,48.80
2019-04-11T09:14:17.134Z,47.60
2019-04-11T09:17:10.175Z,50.80
2019-04-11T09:20:01.301Z,47.30
2019-04-11T09:22:41.801Z,48.40
2019-04-11T09:25:28.985Z,44.40
2019-04-11T09:28:21.765Z,46.10
2019-04-11T09:31:10.650Z,48.00
2019-04-11T09:34:03.759Z,47.60
2019-04-11T09:36:36.887Z,48.30
2019-04-11T09:39:14.994Z,47.90
2019-04-11T09:41:57.939Z,45.70
2019-04-11T09:44:28.872Z,43.70
2019-04-11T09:47:24.746Z,46.50
2019-04-11T09:49:55.980Z,45.30
2019-04-11T09:52:36.871Z,46.40
2019-04-11T09:55:34.425Z,46.20
2019-04-11T09:58:03.631Z,45.20
2019-04-11T10:00:48.595Z,44.90
2019-04-11T10:03:26.236Z,45.50
2019-04-11T10:06:13.956Z,46.20
2019-04-11T10:08:55.706Z,44.50
2019-04-11T10:11:46.718Z,45.70
2019-04-11T10:14:19.702Z,45.20
2019-04-11T10:17:06.755Z,45.70
2019-04-11T10:19:54.180Z,43.60
2019-04-11T10:22:48.455Z,44.40
2019-04-11T10:25:37.202Z,44.90
2019-04-11T10:28:29.670Z,43.80
2019-04-11T10:31:16.214Z,42.50
2019-04-11T10:33:55.465Z,42.70
2019-04-11T10:36:40.349Z,43.50
2019-04-11T10:39:41.826Z,41.80
2019-04-11T10:42:14.781Z,44.70
2019-04-11T10:44:58.224Z,46.40
2019-04-11T10:47:36.821Z,45.30
2019-04-11T10:50:40.438Z,44.60
2019-04-11T10:53:10.935Z,44.80
2019-04-11T10:56:08.905Z,43.40
2019-04-11T10:58:57.551Z,43.70
2019-04-11T11:01:48.534Z,42.40
2019-04-11T11:04:23.607Z,41.90
2019-04-11T11:06:55.894Z,42.00
2019-04-11T11:09:39.014Z,46.70
2019-04-11T11:12:27.532Z,42.40
2019-04-11T11:15:07.200Z,40.60
2019-04-11T11:18:41.085Z,41.30
2019-04-11T11:21:05.594Z,40.00
2019-04-11T11:23:52.511Z,42.20
2019-04-11T11:26:29.789Z,41.20
2019-04-11T11:29:18.587Z,41.70
2019-04-11T11:32:03.101Z,42.90
2019-04-11T11:34:41.114Z,42.80
2019-04-11T11:37:29.039Z,42.10
2019-04-11T11:40:23.922Z,40.80
2019-04-11T11:43:11.252Z,39.90
2019-04-11T11:46:06.943Z,39.50
2019-04-11T11:48:39.687Z,38.70
2019-04-11T11:51:35.617Z,40.00
2019-04-11T11:54:27.657Z,39.90
2019-04-11T11:57:00.588Z,36.40
2019-04-11T11:59:36.487Z,40.20
2019-04-11T12:02:32.803Z,42.20
2019-04-11T12:05:26.760Z,39.60
2019-04-11T12:08:26.636Z,38.60
2019-04-11T12:11:13.598Z,37.20
2019-04-11T12:14:04.121Z,38.70
2019-04-11T12:17:10.571Z,40.40
2019-04-11T12:20:02.570Z,37.60
2019-04-11T12:22:28.490Z,38.30
2019-04-11T12:25:17.050Z,40.90
2019-04-11T12:28:23.986Z,40.10
2019-04-11T12:31:03.736Z,39.40
2019-04-11T12:34:03.077Z,37.10
2019-04-11T12:36:47.144Z,39.40
2019-04-11T12:39:41.178Z,38.90
2019-04-11T12:42:17.228Z,38.70
2019-04-11T12:45:28.811Z,39.50
2019-04-11T12:48:15.344Z,36.50
2019-04-11T12:51:06.163Z,39.20
2019-04-11T12:53:46.329Z,38.00
2019-04-11T12:56:22.925Z,40.60
2019-04-11T12:59:04.846Z,41.90
2019-04-11T13:01:52.651Z,39.60
2019-04-11T13:04:50.303Z,37.40
2019-04-11T13:07:47.598Z,36.20
2019-04-11T13:10:29.026Z,37.20
2019-04-11T13:13:20.848Z,36.50
2019-04-11T13:16:12.083Z,40.60
2019-04-11T13:18:49.358Z,37.40
2019-04-11T13:21:24.145Z,34.20
2019-04-11T13:24:13.563Z,33.80
2019-04-11T13:27:11.766Z,33.50
2019-04-11T13:30:03.197Z,34.40
2019-04-11T13:32:40.362Z,35.50
2019-04-11T13:35:18.018Z,34.90
2019-04-11T13:38:15.000Z,35.50
2019-04-11T13:41:04.103Z,35.00
2019-04-11T13:43:40.707Z,32.10
2019-04-11T13:46:29.669Z,31.70
2019-04-11T13:49:22.272Z,35.60
2019-04-11T13:52:29.882Z,34.80
2019-04-11T13:55:24.412Z,35.10
2019-04-11T13:58:16.569Z,36.80
2019-04-11T14:00:53.056Z,35.50
2019-04-11T14:04:00.604Z,34.80
2019-04-11T14:06:30.707Z,36.40
2019-04-11T14:09:08.780Z,38.50
2019-04-11T14:11:41.721Z,39.10
2019-04-11T14:14:18.751Z,38.00
2019-04-11T14:17:06.036Z,38.10
2019-04-11T14:19:54.251Z,39.70
2019-04-11T14:22:29.074Z,38.50
2019-04-11T14:25:15.066Z,40.50
2019-04-11T14:27:44.280Z,39.60
2019-04-11T14:30:35.498Z,39.60
2019-04-11T14:33:04.698Z,40.00
2019-04-11T14:36:00.826Z,38.30
2019-04-11T14:38:32.414Z,38.10
2019-04-11T14:41:16.059Z,39.20
2019-04-11T14:43:49.014Z,38.40
2019-04-11T14:46:39.163Z,37.90
2019-04-11T14:49:11.180Z,37.70
2019-04-11T14:52:16.954Z,39.10
2019-04-11T14:54:48.929Z,38.80
2019-04-11T14:57:46.737Z,40.90
2019-04-11T15:00:29.068Z,40.50
2019-04-11T15:03:24.294Z,40.40
2019-04-11T15:06:14.762Z,41.70
2019-04-11T15:09:03.288Z,41.10
2019-04-11T15:12:02.381Z,41.60
2019-04-11T15:15:03.836Z,42.40
2019-04-11T15:17:35.767Z,41.90
2019-04-11T15:20:23.413Z,42.70
2019-04-11T15:23:07.619Z,42.60
2019-04-11T15:26:17.656Z,42.00
2019-04-11T15:28:54.466Z,41.90
2019-04-11T15:31:39.111Z,44.70
2019-04-11T15:34:17.687Z,45.20
2019-04-11T15:37:04.827Z,45.00
2019-04-11T15:40:02.516Z,44.90
2019-04-11T15:42:56.030Z,44.60
2019-04-11T15:45:33.145Z,46.10
2019-04-11T15:48:23.445Z,46.60
2019-04-11T15:51:12.914Z,44.90
2019-04-11T15:54:08.679Z,42.90
2019-04-11T15:57:03.410Z,40.90
2019-04-11T15:59:57.572Z,40.20
2019-04-11T16:02:46.813Z,39.20
2019-04-11T16:05:47.519Z,39.00
2019-04-11T16:08:52.231Z,40.00
2019-04-11T16:11:57.299Z,36.30
2019-04-11T16:14:47.015Z,38.70
2019-04-11T16:17:38.049Z,40.60
2019-04-11T16:20:21.406Z,41.90
2019-04-11T16:23:15.847Z,41.40
2019-04-11T16:26:05.971Z,42.70
2019-04-11T16:29:08.657Z,43.00
2019-04-11T16:31:43.128Z,43.90
2019-04-11T16:34:34.891Z,44.50
2019-04-11T16:37:06.858Z,45.90
2019-04-11T16:39:56.795Z,45.70
2019-04-11T16:42:43.513Z,44.70
2019-04-11T16:45:36.070Z,45.10
2019-04-11T16:48:05.643Z,45.90
2019-04-11T16:50:34.947Z,47.10
2019-04-11T16:53:04.507Z,46.10
2019-04-11T16:55:36.651Z,46.60
2019-04-11T16:58:06.310Z,46.40
2019-04-11T17:01:00.030Z,47.20
2019-04-11T17:03:33.868Z,46.60
2019-04-11T17:06:07.548Z,47.10
2019-04-11T17:08:47.493Z,47.30
2019-04-11T17:11:22.181Z,47.80
2019-04-11T17:13:59.339Z,47.20
2019-04-11T17:16:34.313Z,46.70
2019-04-11T17:19:05.568Z,47.20
2019-04-11T17:21:48.108Z,47.00
2019-04-11T17:24:19.269Z,47.20
2019-04-11T17:26:58.271Z,48.00
2019-04-11T17:29:34.205Z,48.70
2019-04-11T17:32:07.825Z,49.70
2019-04-11T17:34:49.790Z,50.70
2019-04-11T17:37:20.880Z,49.90
2019-04-11T17:39:52.386Z,49.80
2019-04-11T17:42:24.781Z,50.30
2019-04-11T17:44:55.462Z,50.70
2019-04-11T17:47:27.632Z,51.80
2019-04-11T17:49:59.569Z,50.80
2019-04-11T17:52:28.758Z,50.70
2019-04-11T17:55:00.203Z,51.50
2019-04-11T17:57:29.789Z,52.00
2019-04-11T18:00:01.832Z,52.80
2019-04-11T18:02:31.705Z,52.40
2019-04-11T18:05:02.968Z,52.50
2019-04-11T18:07:32.403Z,52.10
2019-04-11T18:10:04.767Z,52.30
2019-04-11T18:12:34.237Z,52.30
2019-04-11T18:15:04.215Z,52.50
2019-04-11T18:17:35.988Z,52.10
2019-04-11T18:20:06.933Z,52.40
2019-04-11T18:22:37.090Z,52.80
2019-04-11T18:25:21.508Z,54.20
2019-04-11T18:27:52.357Z,53.40
2019-04-11T18:30:23.316Z,53.70
2019-04-11T18:32:58.263Z,53.80
2019-04-11T18:35:35.411Z,54.10
2019-04-11T18:38:05.431Z,53.30
2019-04-11T18:40:37.966Z,54.30
2019-04-11T18:43:07.183Z,54.40
2019-04-11T18:45:36.640Z,54.70
2019-04-11T18:48:05.644Z,55.00
2019-04-11T18:50:35.303Z,54.00
2019-04-11T18:53:12.825Z,53.00
2019-04-11T18:55:45.862Z,54.60
2019-04-11T18:58:20.589Z,55.40
2019-04-11T19:00:50.473Z,55.20
2019-04-11T19:03:22.029Z,54.30
2019-04-11T19:06:00.210Z,54.30
2019-04-11T19:08:29.320Z,54.60
2019-04-11T19:11:02.086Z,54.40
2019-04-11T19:13:31.927Z,55.40
2019-04-11T19:16:09.721Z,55.70
2019-04-11T19:18:39.907Z,55.70
2019-04-11T19:21:14.136Z,56.30
2019-04-11T19:23:51.195Z,56.00
2019-04-11T19:26:55.795Z,56.00
2019-04-11T19:29:24.814Z,56.60
2019-04-11T19:31:53.983Z,55.80
2019-04-11T19:34:26.935Z,56.20
2019-04-11T19:36:56.785Z,55.50
2019-04-11T19:39:26.280Z,56.00
2019-04-11T19:41:59.062Z,56.30
2019-04-11T19:44:28.798Z,55.50
2019-04-11T19:46:59.010Z,55.90
2019-04-11T19:49:29.057Z,55.80
2019-04-11T19:52:01.072Z,55.90
2019-04-11T19:54:32.753Z,55.70
2019-04-11T19:57:07.176Z,56.60
2019-04-11T19:59:36.153Z,56.70
2019-04-11T20:02:08.268Z,56.40
2019-04-11T20:04:57.847Z,56.60
2019-04-11T20:07:27.691Z,56.70
2019-04-11T20:09:58.561Z,56.70
2019-04-11T20:12:30.116Z,57.30
2019-04-11T20:15:04.691Z,56.80
2019-04-11T20:17:43.738Z,57.10
2019-04-11T20:20:06.711Z,56.40
2019-04-11T20:22:39.750Z,56.80
2019-04-11T20:25:08.655Z,57.50
2019-04-11T20:27:38.945Z,57.80
2019-04-11T20:30:08.907Z,56.60
2019-04-11T20:32:40.098Z,57.80
2019-04-11T20:35:10.269Z,57.60
2019-04-11T20:37:44.595Z,57.30
2019-04-11T20:40:17.366Z,57.30
2019-04-11T20:42:49.408Z,57.10
2019-04-11T20:45:18.482Z,56.40
2019-04-11T20:47:54.407Z,57.10
2019-04-11T20:50:25.567Z,54.90
2019-04-11T20:52:54.947Z,55.00
2019-04-11T20:55:26.868Z,54.30
2019-04-11T20:57:55.996Z,55.40
2019-04-11T21:00:49.589Z,56.00
2019-04-11T21:03:12.701Z,54.60
2019-04-11T21:05:42.479Z,54.90
2019-04-11T21:08:14.401Z,56.00
2019-04-11T21:10:43.997Z,55.20
2019-04-11T21:13:13.267Z,55.20
2019-04-11T21:15:49.979Z,54.10
2019-04-11T21:18:18.741Z,53.50
2019-04-11T21:20:48.509Z,51.70
2019-04-11T21:23:30.844Z,50.70
2019-04-11T21:26:00.299Z,51.10
2019-04-11T21:28:45.040Z,51.50
2019-04-11T21:31:15.765Z,52.60
2019-04-11T21:33:56.524Z,50.80
2019-04-11T21:36:49.452Z,50.90
2019-04-11T21:39:18.727Z,51.90
2019-04-11T21:41:49.147Z,51.90
2019-04-11T21:44:18.847Z,52.00
2019-04-11T21:46:49.436Z,51.80
2019-04-11T21:49:26.607Z,51.40
2019-04-11T21:52:03.222Z,51.00
2019-04-11T21:54:33.466Z,50.60
2019-04-11T21:57:06.920Z,50.00
2019-04-11T21:59:36.052Z,50.10
2019-04-11T22:02:11.154Z,50.00
2019-04-11T22:04:43.321Z,50.30
2019-04-11T22:07:13.075Z,49.90
2019-04-11T22:09:42.340Z,50.10
2019-04-11T22:12:11.607Z,51.60
2019-04-11T22:14:42.028Z,50.40
2019-04-11T22:17:15.161Z,49.50
2019-04-11T22:19:45.151Z,49.10
2019-04-11T22:22:14.299Z,49.70
2019-04-11T22:24:43.480Z,50.70
2019-04-11T22:27:12.617Z,49.30
2019-04-11T22:29:44.846Z,49.50
2019-04-11T22:32:13.734Z,51.70
2019-04-11T22:34:44.879Z,51.50
2019-04-11T22:37:13.938Z,50.60
2019-04-11T22:39:43.180Z,50.60
2019-04-11T22:42:12.198Z,50.80
2019-04-11T22:44:41.261Z,51.10
2019-04-11T22:47:10.550Z,50.30
2019-04-11T22:49:40.450Z,50.70
2019-04-11T22:52:11.460Z,49.60
2019-04-11T22:54:41.177Z,51.50
2019-04-11T22:57:12.196Z,52.10
2019-04-11T22:59:44.302Z,52.50
2019-04-11T23:02:21.727Z,52.70
2019-04-11T23:04:50.475Z,52.70
2019-04-11T23:07:19.665Z,50.80
2019-04-11T23:09:49.482Z,51.90
2019-04-11T23:12:18.657Z,52.60
2019-04-11T23:14:47.406Z,52.30
2019-04-11T23:17:16.426Z,52.70
2019-04-11T23:19:45.266Z,52.80
2019-04-11T23:22:14.014Z,53.60
2019-04-11T23:24:43.044Z,53.50
2019-04-11T23:27:11.808Z,53.30
2019-04-11T23:29:41.334Z,52.30
2019-04-11T23:32:10.257Z,54.10
2019-04-11T23:34:39.519Z,55.10
2019-04-11T23:37:08.574Z,54.40
2019-04-11T23:39:40.001Z,53.70
2019-04-11T23:42:09.606Z,54.10
2019-04-11T23:44:39.525Z,53.80
2019-04-11T23:47:09.120Z,54.20
2019-04-11T23:49:38.089Z,52.00
2019-04-11T23:52:07.134Z,52.10
2019-04-11T23:54:36.118Z,52.30
2019-04-11T23:57:04.945Z,52.40
2019-04-11T23:59:34.226Z,53.30
